createdAt,value
2019-05-15T00:04:42.276Z,2.23
2019-05-15T00:09:49.193Z,4.07
2019-05-15T00:14:54.207Z,2.37
2019-05-15T00:19:59.167Z,2.40
2019-05-15T00:25:05.516Z,6.07
2019-05-15T00:30:11.908Z,4.80
2019-05-15T00:35:18.458Z,2.13
2019-05-15T00:40:23.585Z,4.27
2019-05-15T00:45:28.646Z,2.20
2019-05-15T00:50:33.719Z,2.43
2019-05-15T00:55:39.691Z,4.53
2019-05-15T01:00:45.079Z,3.57
2019-05-15T01:05:50.195Z,3.70
2019-05-15T01:10:55.246Z,2.80
2019-05-15T01:16:00.448Z,4.90
2019-05-15T01:21:08.192Z,5.33
2019-05-15T01:26:12.861Z,3.40
2019-05-15T01:31:19.075Z,3.40
2019-05-15T01:36:24.581Z,3.17
2019-05-15T01:41:30.080Z,6.03
2019-05-15T01:46:35.158Z,4.77
2019-05-15T01:51:40.387Z,2.33
2019-05-15T01:56:45.828Z,3.93
2019-05-15T02:01:51.221Z,2.50
2019-05-15T02:06:58.747Z,3.03
2019-05-15T02:12:03.051Z,5.27
2019-05-15T02:17:08.460Z,4.27
2019-05-15T02:22:13.567Z,3.40
2019-05-15T02:27:18.917Z,2.83
2019-05-15T02:32:23.964Z,11.93
2019-05-15T02:37:29.563Z,3.80
2019-05-15T02:42:34.908Z,7.87
2019-05-15T02:47:40.244Z,3.30
2019-05-15T02:52:49.451Z,8.07
2019-05-15T02:57:53.471Z,4.87
2019-05-15T03:03:00.181Z,3.87
2019-05-15T03:08:09.307Z,3.30
2019-05-15T03:13:13.520Z,3.57
2019-05-15T03:18:19.368Z,5.53
2019-05-15T03:23:24.714Z,3.70
2019-05-15T03:28:30.420Z,6.43
2019-05-15T03:33:38.798Z,7.30
2019-05-15T03:38:42.622Z,4.53
2019-05-15T03:43:49.566Z,3.03
2019-05-15T03:48:55.915Z,4.47
2019-05-15T03:54:00.927Z,4.17
2019-05-15T03:59:09.428Z,3.23
2019-05-15T04:04:15.032Z,4.03
2019-05-15T04:09:20.410Z,8.20
2019-05-15T04:14:25.716Z,4.73
2019-05-15T04:19:32.331Z,3.87
2019-05-15T04:24:39.503Z,6.90
2019-05-15T04:29:45.296Z,2.70
2019-05-15T04:34:51.181Z,7.73
2019-05-15T04:39:59.560Z,14.80
2019-05-15T04:45:03.062Z,4.30
2019-05-15T04:50:09.996Z,6.37
2019-05-15T04:55:15.268Z,4.50
2019-05-15T05:00:34.981Z,6.70
2019-05-15T05:05:40.714Z,2.37
2019-05-15T05:10:48.596Z,4.93
2019-05-15T05:15:52.545Z,5.50
2019-05-15T05:20:57.906Z,3.37
2019-05-15T05:26:03.247Z,5.33
2019-05-15T05:31:08.655Z,9.07
2019-05-15T05:36:18.560Z,4.83
2019-05-15T05:41:24.039Z,5.83
2019-05-15T05:46:29.469Z,3.87
2019-05-15T05:51:34.824Z,5.63
2019-05-15T05:56:40.028Z,4.43
2019-05-15T06:01:48.407Z,3.27
2019-05-15T06:07:06.070Z,5.53
2019-05-15T06:12:00.376Z,5.67
2019-05-15T06:17:05.438Z,6.43
2019-05-15T06:22:11.713Z,8.07
2019-05-15T06:27:16.686Z,3.30
2019-05-15T06:32:22.255Z,3.60
2019-05-15T06:37:28.671Z,6.67
2019-05-15T06:42:35.128Z,7.43
2019-05-15T06:47:40.505Z,5.90
2019-05-15T06:52:45.843Z,2.97
2019-05-15T06:57:51.111Z,4.00
2019-05-15T07:02:58.333Z,7.83
2019-05-15T07:08:03.680Z,3.93
2019-05-15T07:13:13.276Z,5.63
2019-05-15T07:18:19.785Z,6.27
2019-05-15T07:23:29.803Z,6.83
2019-05-15T07:28:32.434Z,4.63
2019-05-15T07:33:43.128Z,3.83
2019-05-15T07:38:45.517Z,6.70
2019-05-15T07:43:52.080Z,7.93
2019-05-15T07:48:58.377Z,6.00
2019-05-15T07:54:04.801Z,4.97
2019-05-15T07:59:09.942Z,5.67
2019-05-15T08:04:26.217Z,4.77
2019-05-15T08:09:23.235Z,5.20
2019-05-15T08:14:29.243Z,6.53
2019-05-15T08:19:34.400Z,5.40
2019-05-15T08:24:39.667Z,4.73
2019-05-15T08:29:45.766Z,8.37
2019-05-15T08:34:51.478Z,7.80
2019-05-15T08:39:59.420Z,5.17
2019-05-15T08:45:04.695Z,7.80
2019-05-15T08:50:11.909Z,7.60
2019-05-15T08:55:20.273Z,5.33
2019-05-15T09:00:25.528Z,6.67
2019-05-15T09:05:30.716Z,6.10
2019-05-15T09:10:38.547Z,11.63
2019-05-15T09:15:48.049Z,6.77
2019-05-15T09:20:52.232Z,4.87
2019-05-15T09:25:57.840Z,7.33
2019-05-15T09:31:03.136Z,7.20
2019-05-15T09:36:09.105Z,9.23
2019-05-15T09:41:14.226Z,12.13
2019-05-15T09:46:19.334Z,8.07
2019-05-15T09:51:24.384Z,8.67
2019-05-15T09:56:29.663Z,9.73
2019-05-15T10:01:34.949Z,9.97
2019-05-15T10:06:39.995Z,9.23
2019-05-15T10:11:49.177Z,10.63
2019-05-15T10:16:55.062Z,12.17
2019-05-15T10:22:01.624Z,12.77
2019-05-15T10:27:08.774Z,14.33
2019-05-15T10:32:13.758Z,12.67
2019-05-15T10:37:18.998Z,15.03
2019-05-15T10:42:24.195Z,10.80
2019-05-15T10:47:29.797Z,14.23
2019-05-15T10:52:35.200Z,11.87
2019-05-15T10:57:43.801Z,18.27
2019-05-15T11:02:48.950Z,17.47
2019-05-15T11:07:55.490Z,13.07
2019-05-15T11:13:01.071Z,12.30
2019-05-15T11:18:10.303Z,10.33
2019-05-15T11:23:19.538Z,13.30
2019-05-15T11:28:23.277Z,13.37
2019-05-15T11:33:29.215Z,13.67
2019-05-15T11:38:34.532Z,16.97
2019-05-15T11:43:43.066Z,13.87
2019-05-15T11:48:49.754Z,11.57
2019-05-15T11:53:54.848Z,12.00
2019-05-15T11:58:59.938Z,14.33
2019-05-15T12:04:05.823Z,10.97
2019-05-15T12:09:11.003Z,13.90
2019-05-15T12:14:18.638Z,9.43
2019-05-15T12:19:22.783Z,14.00
2019-05-15T12:24:32.852Z,13.63
2019-05-15T12:29:35.062Z,11.27
2019-05-15T12:34:41.447Z,11.50
2019-05-15T12:39:49.126Z,8.37
2019-05-15T13:00:15.135Z,18.07
2019-05-15T13:05:20.231Z,11.57
2019-05-15T13:10:25.262Z,14.23
2019-05-15T13:15:30.401Z,22.13
2019-05-15T13:20:38.176Z,12.50
2019-05-15T13:25:43.330Z,10.77
2019-05-15T13:30:49.098Z,7.77
2019-05-15T13:35:54.597Z,10.53
2019-05-15T13:41:00.073Z,9.97
2019-05-15T13:46:05.245Z,10.53
2019-05-15T13:51:10.406Z,10.73
2019-05-15T13:56:18.191Z,13.73
2019-05-15T14:01:23.437Z,10.70
2019-05-15T14:06:28.918Z,11.63
2019-05-15T14:11:33.972Z,7.90
2019-05-15T14:16:39.041Z,10.90
2019-05-15T14:21:44.108Z,7.20
2019-05-15T14:26:49.421Z,9.83
2019-05-15T14:31:54.816Z,10.73
2019-05-15T14:37:00.343Z,11.27
2019-05-15T14:42:05.819Z,6.70
2019-05-15T14:47:10.962Z,8.97
2019-05-15T14:52:17.945Z,7.63
2019-05-15T14:57:22.983Z,7.57
2019-05-15T15:02:28.143Z,8.67
2019-05-15T15:07:33.325Z,9.60
2019-05-15T15:12:39.981Z,8.87
2019-05-15T15:17:45.113Z,14.03
2019-05-15T15:22:51.522Z,7.00
2019-05-15T15:28:08.381Z,12.05
2019-05-15T15:33:13.747Z,8.60
2019-05-15T15:38:36.714Z,7.43
2019-05-15T15:43:28.843Z,8.17
2019-05-15T15:48:34.077Z,8.90
2019-05-15T15:53:39.289Z,9.53
2019-05-15T15:58:44.346Z,6.13
2019-05-15T16:03:49.464Z,8.77
2019-05-15T16:08:55.816Z,5.90
2019-05-15T16:14:01.402Z,3.83
2019-05-15T16:19:08.077Z,10.03
2019-05-15T16:24:20.736Z,10.77
2019-05-15T16:29:22.187Z,4.77
2019-05-15T16:34:28.360Z,5.53
2019-05-15T16:39:33.779Z,3.63
2019-05-15T16:44:39.755Z,7.30
2019-05-15T16:49:48.361Z,8.03
2019-05-15T16:54:52.717Z,5.30
2019-05-15T16:59:58.707Z,11.33
2019-05-15T17:05:06.825Z,7.13
2019-05-15T17:10:13.248Z,6.97
2019-05-15T17:15:18.945Z,5.20
2019-05-15T17:20:24.688Z,6.37
2019-05-15T17:25:29.959Z,7.60
2019-05-15T17:30:38.189Z,5.97
2019-05-15T17:35:42.140Z,3.70
2019-05-15T17:40:48.452Z,5.57
2019-05-15T17:45:53.797Z,4.83
2019-05-15T17:50:59.926Z,4.87
2019-05-15T17:56:07.117Z,4.07
2019-05-15T18:01:12.536Z,7.53
2019-05-15T18:06:19.527Z,4.37
2019-05-15T18:11:24.945Z,5.53
2019-05-15T18:16:30.256Z,11.17
2019-05-15T18:21:38.324Z,3.53
2019-05-15T18:26:45.945Z,4.27
2019-05-15T18:31:51.200Z,5.67
2019-05-15T18:36:57.845Z,11.20
2019-05-15T18:42:03.118Z,4.40
2019-05-15T18:47:08.660Z,3.13
2019-05-15T18:52:15.020Z,5.20
2019-05-15T18:57:20.650Z,5.10
2019-05-15T19:02:28.105Z,4.30
2019-05-15T19:07:34.104Z,4.20
2019-05-15T19:12:39.350Z,8.13
2019-05-15T19:17:45.901Z,4.53
2019-05-15T19:22:52.343Z,7.07
2019-05-15T19:27:57.505Z,5.37
2019-05-15T19:33:02.623Z,6.40
2019-05-15T19:38:07.928Z,6.30
2019-05-15T19:43:13.202Z,4.90
2019-05-15T19:48:20.105Z,3.80
2019-05-15T19:53:25.436Z,3.97
2019-05-15T19:58:30.844Z,7.40
2019-05-15T20:03:47.375Z,6.90
2019-05-15T20:08:42.747Z,2.60
2019-05-15T20:13:48.883Z,5.70
2019-05-15T20:18:55.108Z,7.13
2019-05-15T20:24:00.280Z,4.57
2019-05-15T20:29:05.572Z,8.77
2019-05-15T20:34:12.282Z,4.60
2019-05-15T20:39:17.693Z,4.80
2019-05-15T20:44:22.802Z,5.97
2019-05-15T20:49:28.631Z,5.47
2019-05-15T20:54:33.827Z,5.40
2019-05-15T20:59:39.234Z,4.53
2019-05-15T21:04:44.363Z,4.87
2019-05-15T21:09:49.467Z,5.30
2019-05-15T21:14:54.675Z,4.20
2019-05-15T21:20:01.221Z,5.27
2019-05-15T21:25:10.623Z,4.00
2019-05-15T21:30:15.220Z,3.57
2019-05-15T21:35:22.982Z,3.03
2019-05-15T21:40:28.156Z,6.83
2019-05-15T21:45:33.267Z,3.20
2019-05-15T21:50:38.823Z,5.87
2019-05-15T21:55:44.083Z,3.67
2019-05-15T22:00:52.139Z,4.90
2019-05-15T22:05:58.851Z,5.10
2019-05-15T22:11:03.992Z,4.90
2019-05-15T22:16:09.469Z,3.60
2019-05-15T22:21:14.621Z,3.50
2019-05-15T22:26:21.628Z,3.67
2019-05-15T22:31:26.497Z,4.17
2019-05-15T22:36:31.535Z,4.60
2019-05-15T22:41:38.742Z,4.80
2019-05-15T22:46:43.296Z,4.93
2019-05-15T22:51:48.741Z,4.47
2019-05-15T22:56:53.888Z,4.83
2019-05-15T23:01:58.903Z,5.00
2019-05-15T23:07:04.239Z,5.60
2019-05-15T23:12:11.522Z,6.23
2019-05-15T23:17:17.534Z,7.90
2019-05-15T23:22:22.491Z,7.53
2019-05-15T23:27:28.755Z,4.90
2019-05-15T23:32:39.173Z,3.73
2019-05-15T23:37:43.295Z,5.13
2019-05-15T23:42:49.120Z,5.30
2019-05-15T23:47:54.450Z,4.00
2019-05-15T23:53:02.051Z,6.67
2019-05-15T23:58:09.052Z,5.50
